Weather History for Litchfield, MN

Change the Weather History Date:

Sunday, February 9, 2014

  Actual Average Record
Temperature  
Mean Temperature -1 °F -  
Max Temperature 5 °F 24 °F 54 °F (1991)
Min Temperature -9 °F 3 °F -23 °F (1972)
Degree Days  
Heating Degree Days 66    
Moisture  
Dew Point -9 °F    
Average Humidity 74    
Maximum Humidity 85    
Minimum Humidity 61    
Precipitation  
Precipitation 0.00 in - - ()
Sea Level Pressure  
Sea Level Pressure 30.29 in    
Wind  
Wind Speed 8 mph (NW)    
Max Wind Speed 15 mph    
Max Gust Speed 20 mph    
Visibility 10 miles    
Events      
Averages and records for this station are not official NWS values.
T = Trace of Precipitation, MM = Missing Value Source: NWS Daily Summary

Daily Weather History Graph

Daily Weather History Graph

Search for Another Location

Airport:

Trip Planner

Search our weather history database for the weather conditions in past years. The results will help you decide how hot, cold, wet, or windy it might be!

Date:

Astronomy

Feb. 09, 2014 Rise Set
Actual Time 7:27 AM CST 5:37 PM CST
Civil Twilight 6:57 AM CST 6:08 PM CST
Nautical Twilight 6:22 AM CST 6:42 PM CST
Astronomical Twilight 5:48 AM CST 7:16 PM CST
Moon 1:13 PM CST (2/9) 3:38 AM CST (2/9)
Length of Visible Light 11h 10m
Length of Day
10h 09m
Waxing Gibbous, 77% of the Moon is Illuminated
Feb 9
Waxing Gibbous
Feb 14
Full
Feb 22
Last Quarter
Mar 1
New
Mar 8
First Quarter

Hourly Weather History & Observations

Time (CST) Temp. Windchill Dew Point Humidity Pressure Visibility Wind Dir Wind Speed Gust Speed Precip Events Conditions
12:13 AM -0.4 °F -13.4 °F -5.8 °F 78% 30.18 in 10.0 mi NW 6.9 mph - N/A   Clear
12:32 AM -2.2 °F -15.6 °F -5.8 °F 85% 30.18 in 10.0 mi NW 6.9 mph - N/A   Clear
12:53 AM -2.2 °F -15.6 °F -5.8 °F 85% 30.19 in 10.0 mi WNW 6.9 mph - N/A   Clear
1:12 AM -2.2 °F -15.6 °F -7.6 °F 78% 30.19 in 10.0 mi WNW 6.9 mph - N/A   Clear
1:33 AM -2.2 °F -16.8 °F -7.6 °F 78% 30.20 in 10.0 mi WNW 8.1 mph - N/A   Clear
1:52 AM -2.2 °F -15.6 °F -7.6 °F 78% 30.20 in 10.0 mi WNW 6.9 mph - N/A   Clear
2:13 AM -2.2 °F -16.8 °F -7.6 °F 78% 30.21 in 10.0 mi NW 8.1 mph - N/A   Clear
2:33 AM -4.0 °F -17.8 °F -7.6 °F 85% 30.21 in 10.0 mi WNW 6.9 mph - N/A   Clear
2:52 AM -2.2 °F -16.8 °F -7.6 °F 78% 30.22 in 10.0 mi NW 8.1 mph - N/A   Clear
3:13 AM -4.0 °F -17.8 °F -7.6 °F 85% 30.22 in 10.0 mi WNW 6.9 mph - N/A   Clear
3:33 AM -4.0 °F -19.0 °F -7.6 °F 85% 30.22 in 10.0 mi NW 8.1 mph - N/A   Clear
3:52 AM -4.0 °F -19.0 °F -7.6 °F 85% 30.22 in 10.0 mi NW 8.1 mph - N/A   Clear
4:13 AM -5.8 °F -21.2 °F -9.4 °F 84% 30.24 in 10.0 mi WNW 8.1 mph - N/A   Clear
4:33 AM -4.0 °F -19.0 °F -9.4 °F 78% 30.23 in 10.0 mi NW 8.1 mph - N/A   Clear
4:52 AM -5.8 °F -23.4 °F -9.4 °F 84% 30.24 in 10.0 mi NW 10.4 mph - N/A   Clear
5:13 AM -5.8 °F -22.4 °F -9.4 °F 84% 30.24 in 10.0 mi NW 9.2 mph - N/A   Clear
5:33 AM -5.8 °F -21.2 °F -11.2 °F 77% 30.23 in 10.0 mi NNW 8.1 mph - N/A   Clear
5:52 AM -5.8 °F -19.9 °F -11.2 °F 77% 30.23 in 10.0 mi NNW 6.9 mph - N/A   Clear
6:13 AM -7.6 °F -20.6 °F -11.2 °F 84% 30.24 in 10.0 mi NNW 5.8 mph - N/A   Clear
6:33 AM -5.8 °F -18.4 °F -11.2 °F 77% 30.26 in 10.0 mi NW 5.8 mph - N/A   Clear
6:52 AM -7.6 °F -22.1 °F -11.2 °F 84% 30.27 in 10.0 mi NW 6.9 mph - N/A   Clear
7:13 AM -7.6 °F -23.4 °F -13.0 °F 77% 30.28 in 10.0 mi NW 8.1 mph - N/A   Clear
7:33 AM -7.6 °F -22.1 °F -11.2 °F 84% 30.28 in 10.0 mi NW 6.9 mph - N/A   Clear
7:52 AM -7.6 °F -22.1 °F -11.2 °F 84% 30.28 in 10.0 mi NW 6.9 mph - N/A   Clear
8:13 AM -7.6 °F -22.1 °F -13.0 °F 77% 30.28 in 10.0 mi NW 6.9 mph - N/A   Clear
8:33 AM -5.8 °F -19.9 °F -13.0 °F 71% 30.29 in 10.0 mi WNW 6.9 mph - N/A   Clear
8:52 AM -5.8 °F -22.4 °F -11.2 °F 77% 30.29 in 10.0 mi NW 9.2 mph - N/A   Clear
9:13 AM -5.8 °F -22.4 °F -11.2 °F 77% 30.30 in 10.0 mi NW 9.2 mph - N/A   Clear
9:33 AM -4.0 °F -19.0 °F -11.2 °F 71% 30.30 in 10.0 mi NW 8.1 mph - N/A   Clear
9:52 AM -2.2 °F -18.0 °F -11.2 °F 66% 30.31 in 10.0 mi NW 9.2 mph - N/A   Clear
10:13 AM -2.2 °F -15.6 °F -9.4 °F 71% 30.32 in 10.0 mi NW 6.9 mph - N/A   Clear
10:33 AM -0.4 °F -15.7 °F -9.4 °F 66% 30.31 in 10.0 mi NW 9.2 mph - N/A   Clear
10:52 AM -0.4 °F -16.7 °F -9.4 °F 66% 30.32 in 10.0 mi NW 10.4 mph - N/A   Clear
11:13 AM 1.4 °F -13.5 °F -9.4 °F 61% 30.32 in 10.0 mi NW 9.2 mph 16.1 mph N/A   Clear
11:33 AM 1.4 °F -15.3 °F -7.6 °F 66% 30.32 in 10.0 mi NW 11.5 mph 16.1 mph N/A   Clear
11:52 AM 3.2 °F -12.2 °F -7.6 °F 61% 30.31 in 10.0 mi NW 10.4 mph 16.1 mph N/A   Clear
12:13 PM 3.2 °F -12.2 °F -5.8 °F 66% 30.31 in 10.0 mi NW 10.4 mph - N/A   Scattered Clouds
12:32 PM 3.2 °F -10.3 °F -5.8 °F 66% 30.30 in 10.0 mi NW 8.1 mph - N/A   Mostly Cloudy
12:53 PM 5.0 °F -10.8 °F -5.8 °F 61% 30.30 in 10.0 mi WNW 11.5 mph 18.4 mph N/A   Overcast
1:12 PM 5.0 °F -10.0 °F -2.2 °F 72% 30.30 in 7.0 mi WNW 10.4 mph - N/A   Mostly Cloudy
1:32 PM 5.0 °F -12.3 °F -4.0 °F 66% 30.29 in 10.0 mi WNW 13.8 mph - N/A   Scattered Clouds
1:53 PM 5.0 °F -11.6 °F -4.0 °F 66% 30.29 in 7.0 mi WNW 12.7 mph - N/A   Scattered Clouds
2:12 PM 5.0 °F -10.8 °F -4.0 °F 66% 30.28 in 10.0 mi WNW 11.5 mph 19.6 mph N/A   Scattered Clouds
2:32 PM 5.0 °F -12.3 °F -4.0 °F 66% 30.28 in 10.0 mi WNW 13.8 mph 17.3 mph N/A   Scattered Clouds
2:53 PM 5.0 °F -10.8 °F -4.0 °F 66% 30.29 in 10.0 mi WNW 11.5 mph - N/A   Scattered Clouds
3:12 PM 3.2 °F -13.1 °F -5.8 °F 66% 30.30 in 10.0 mi WNW 11.5 mph 17.3 mph N/A   Scattered Clouds
3:33 PM 3.2 °F -14.6 °F -7.6 °F 61% 30.30 in 10.0 mi NW 13.8 mph 18.4 mph N/A   Scattered Clouds
3:53 PM 3.2 °F -13.9 °F -7.6 °F 61% 30.30 in 10.0 mi NW 12.7 mph - N/A   Clear
4:12 PM 3.2 °F -15.3 °F -7.6 °F 61% 30.30 in 10.0 mi WNW 15.0 mph - N/A   Clear
4:33 PM 1.4 °F -16.9 °F -7.6 °F 66% 30.30 in 10.0 mi WNW 13.8 mph - N/A   Clear
4:53 PM 1.4 °F -13.5 °F -7.6 °F 66% 30.31 in 10.0 mi WNW 9.2 mph - N/A   Clear
5:13 PM -0.4 °F -17.6 °F -9.4 °F 66% 30.32 in 10.0 mi NW 11.5 mph - N/A   Clear
5:32 PM -0.4 °F -15.7 °F -9.4 °F 66% 30.32 in 10.0 mi NW 9.2 mph - N/A   Clear
5:53 PM -0.4 °F -15.7 °F -9.4 °F 66% 30.33 in 10.0 mi NW 9.2 mph 16.1 mph N/A   Clear
6:13 PM -2.2 °F -18.0 °F -9.4 °F 71% 30.34 in 10.0 mi WNW 9.2 mph 16.1 mph N/A   Clear
6:32 PM -2.2 °F -18.0 °F -9.4 °F 71% 30.35 in 10.0 mi WNW 9.2 mph - N/A   Clear
6:53 PM -2.2 °F -18.9 °F -9.4 °F 71% 30.35 in 10.0 mi WNW 10.4 mph 17.3 mph N/A   Clear
7:13 PM -4.0 °F -21.2 °F -9.4 °F 78% 30.35 in 10.0 mi WNW 10.4 mph - N/A   Clear
7:32 PM -5.8 °F -21.2 °F -11.2 °F 77% 30.35 in 10.0 mi WNW 8.1 mph - N/A   Clear
7:53 PM -5.8 °F -21.2 °F -11.2 °F 77% 30.35 in 10.0 mi NW 8.1 mph 16.1 mph N/A   Clear
8:13 PM -5.8 °F -23.4 °F -11.2 °F 77% 30.35 in 10.0 mi NW 10.4 mph - N/A   Clear
8:32 PM -5.8 °F -23.4 °F -11.2 °F 77% 30.35 in 10.0 mi NW 10.4 mph - N/A   Clear
8:53 PM -5.8 °F -22.4 °F -11.2 °F 77% 30.35 in 10.0 mi NW 9.2 mph - N/A   Clear
9:13 PM -5.8 °F -21.2 °F -11.2 °F 77% 30.35 in 10.0 mi NW 8.1 mph - N/A   Clear
9:32 PM -5.8 °F -22.4 °F -11.2 °F 77% 30.36 in 10.0 mi NW 9.2 mph - N/A   Clear
9:51 PM -5.8 °F -23.4 °F -11.2 °F 77% 30.36 in 10.0 mi NW 10.4 mph - N/A   Clear
10:00 PM -5.8 °F -21.2 °F -11.2 °F 77% 30.37 in 10.0 mi NW 8.1 mph - N/A   Clear
10:32 PM -7.6 °F -23.4 °F -11.2 °F 84% 30.37 in 10.0 mi NW 8.1 mph - N/A   Clear
10:53 PM -7.6 °F -24.6 °F -13.0 °F 77% 30.38 in 10.0 mi NW 9.2 mph - N/A   Clear
11:13 PM -7.6 °F -24.6 °F -13.0 °F 77% 30.38 in 10.0 mi WNW 9.2 mph - N/A   Clear
11:32 PM -7.6 °F -23.4 °F -14.8 °F 71% 30.39 in 10.0 mi WNW 8.1 mph - N/A   Clear
11:53 PM -9.4 °F -24.3 °F -14.8 °F 77% 30.40 in 10.0 mi WNW 6.9 mph - N/A   Clear